Time;durP1;ratioP1;P1;durP2;ratioP2;P2;SDS_P1;SDS_P2;PMS_P1;PMS_P2;Temp;Humidity;BMP_temperature;BMP_pressure;BME280_temperature;BME280_humidity;BME280_pressure;Samples;Min_cycle;Max_cycle;Signal;HPM_P1;HPM_P2
2021/11/14 00:00:03;;;;;;;96.95;49.75;;;;;;;9.37;59.04;100408.88;7381091;19;20013;-68
2021/11/14 00:02:51;;;;;;;89.43;47.88;;;;;;;9.34;58.94;100398.53;7379517;19;20021;-68
2021/11/14 00:05:40;;;;;;;96.43;49.00;;;;;;;9.27;59.02;100397.84;7384811;19;20501;-68
2021/11/14 00:08:28;;;;;;;93.15;48.08;;;;;;;9.31;59.37;100399.47;7381549;19;20576;-68
2021/11/14 00:11:17;;;;;;;90.95;47.47;;;;;;;9.36;59.01;100396.72;7380705;19;20053;-68
2021/11/14 00:14:08;;;;;;;92.32;47.88;;;;;;;9.36;59.25;100400.19;7380999;19;20028;-67
2021/11/14 00:16:55;;;;;;;95.15;48.72;;;;;;;9.37;58.70;100399.31;7378298;19;20033;-67
2021/11/14 00:19:43;;;;;;;85.35;47.40;;;;;;;9.35;59.07;100401.09;7379297;19;20642;-68
2021/11/14 00:22:30;;;;;;;81.75;44.35;;;;;;;9.32;59.50;100397.72;7379636;19;20045;-67
2021/11/14 00:25:45;;;;;;;88.60;46.13;;;;;;;9.26;59.40;100406.63;7380320;19;20395;-68
2021/11/14 00:28:33;;;;;;;85.07;45.80;;;;;;;9.29;59.08;100410.88;7380003;19;20022;-69
2021/11/14 00:31:24;;;;;;;84.25;45.95;;;;;;;9.27;59.15;100413.56;7379502;19;20049;-69
2021/11/14 00:34:12;;;;;;;84.50;45.00;;;;;;;9.28;59.13;100415.28;7379979;19;20651;-69
2021/11/14 00:37:00;;;;;;;87.88;43.47;;;;;;;9.20;59.45;100413.78;7379073;19;20131;-67
2021/11/14 00:39:49;;;;;;;88.70;46.22;;;;;;;9.12;59.70;100403.53;7379015;19;20666;-68
2021/11/14 00:42:36;;;;;;;88.85;45.97;;;;;;;9.12;59.76;100412.25;7376967;19;20033;-70
2021/11/14 00:45:26;;;;;;;88.22;47.45;;;;;;;9.16;59.27;100415.63;7381345;19;20832;-69
2021/11/14 00:48:18;;;;;;;85.00;46.63;;;;;;;9.18;59.51;100408.63;7383838;19;20048;-68
2021/11/14 00:51:05;;;;;;;;;;;;;;;9.28;59.21;100420.50;7386019;19;20478;-69
2021/11/14 00:53:53;;;;;;;91.88;47.47;;;;;;;9.26;58.73;100416.22;7386975;19;20602;-69
2021/11/14 00:56:41;;;;;;;91.03;47.97;;;;;;;9.09;59.51;100411.50;7384658;19;20033;-68
2021/11/14 00:59:29;;;;;;;88.43;45.17;;;;;;;9.06;59.59;100414.19;7387290;19;20386;-68
2021/11/14 01:02:16;;;;;;;98.05;49.00;;;;;;;9.07;59.51;100413.28;7385855;19;20024;-69
2021/11/14 01:05:08;;;;;;;98.13;47.67;;;;;;;9.03;59.86;100417.75;7385552;19;20025;-68
2021/11/14 01:07:56;;;;;;;95.93;45.88;;;;;;;9.05;59.85;100417.72;7384095;19;20025;-69
2021/11/14 01:10:46;;;;;;;95.97;48.38;;;;;;;9.08;59.44;100422.84;7386868;19;20029;-67
2021/11/14 01:13:35;;;;;;;98.65;46.85;;;;;;;9.09;59.62;100414.09;7386770;19;20048;-67
2021/11/14 01:16:24;;;;;;;97.15;46.95;;;;;;;9.08;59.51;100418.47;7385367;19;20029;-66
2021/11/14 01:19:12;;;;;;;103.97;50.17;;;;;;;9.12;59.74;100420.09;7387164;19;20026;-67
2021/11/14 01:22:02;;;;;;;91.70;46.67;;;;;;;9.13;59.73;100420.94;7384189;19;20394;-68
2021/11/14 01:24:50;;;;;;;96.82;47.13;;;;;;;9.13;59.36;100426.19;7386327;19;20378;-69
2021/11/14 01:27:39;;;;;;;103.32;48.28;;;;;;;9.10;59.84;100424.50;7384204;19;20026;-68
2021/11/14 01:30:29;;;;;;;104.75;47.65;;;;;;;9.10;59.56;100426.28;7386003;19;20105;-68
2021/11/14 01:33:19;;;;;;;100.35;48.72;;;;;;;9.11;59.95;100430.59;7383969;19;20443;-68
2021/11/14 01:36:07;;;;;;;95.75;43.42;;;;;;;9.06;60.06;100427.28;7386190;19;20025;-68
2021/11/14 01:38:57;;;;;;;105.78;45.60;;;;;;;9.03;59.80;100435.22;7383623;19;20021;-68
2021/11/14 01:41:44;;;;;;;113.03;45.72;;;;;;;9.03;59.48;100435.22;7383457;19;20041;-67
2021/11/14 01:44:32;;;;;;;104.75;46.55;;;;;;;8.99;60.32;100446.66;7385439;19;20388;-67
2021/11/14 01:47:20;;;;;;;114.85;45.28;;;;;;;8.96;59.85;100444.16;7384055;19;20379;-69
2021/11/14 01:50:09;;;;;;;100.57;46.35;;;;;;;8.95;60.36;100447.63;7384906;19;20105;-69
2021/11/14 01:52:57;;;;;;;107.72;44.00;;;;;;;8.86;60.21;100444.38;7381721;19;20022;-68
2021/11/14 01:55:50;;;;;;;99.60;41.13;;;;;;;8.88;59.83;100446.09;7385029;19;20525;-68
2021/11/14 01:58:39;;;;;;;91.68;39.17;;;;;;;8.88;59.79;100451.34;7385261;19;20025;-68
2021/11/14 02:01:32;;;;;;;98.15;40.92;;;;;;;8.79;60.32;100448.09;7384545;19;20060;-69
2021/11/14 02:04:20;;;;;;;91.78;39.15;;;;;;;8.74;59.90;100444.72;7384938;19;20023;-69
2021/11/14 02:07:08;;;;;;;93.97;39.85;;;;;;;8.70;60.29;100447.47;7382029;19;20438;-69
2021/11/14 02:09:55;;;;;;;88.82;40.40;;;;;;;8.68;60.18;100444.91;7383116;19;20034;-69
2021/11/14 02:12:45;;;;;;;93.85;38.97;;;;;;;8.70;60.10;100450.94;7381895;19;20128;-67
2021/11/14 02:15:33;;;;;;;81.97;38.58;;;;;;;8.70;60.44;100456.16;7384575;19;20036;-68
2021/11/14 02:18:21;;;;;;;89.47;40.00;;;;;;;8.75;60.39;100456.91;7383979;19;20490;-69
2021/11/14 02:21:12;;;;;;;94.65;38.88;;;;;;;8.72;60.06;100456.13;7386201;19;20018;-68
2021/11/14 02:24:00;;;;;;;90.82;39.08;;;;;;;8.71;59.88;100459.63;7385960;19;20597;-66
2021/11/14 02:31:58;;;;;;;86.32;37.38;;;;;;;8.58;60.58;100469.56;7380683;19;20018;-67
2021/11/14 02:34:46;;;;;;;97.05;39.88;;;;;;;8.54;60.28;100470.56;7386597;19;20039;-67
2021/11/14 02:40:22;;;;;;;87.15;39.63;;;;;;;8.51;60.46;100475.84;7373767;19;20022;-70
2021/11/14 02:43:11;;;;;;;86.97;38.33;;;;;;;8.54;60.53;100471.41;7384409;19;20022;-72
2021/11/14 02:45:59;;;;;;;96.70;39.13;;;;;;;8.57;60.13;100475.72;7391298;19;20038;-71
2021/11/14 02:48:47;;;;;;;87.10;38.85;;;;;;;8.57;60.34;100480.94;7385774;19;20055;-71
2021/11/14 02:51:35;;;;;;;93.00;38.30;;;;;;;8.53;60.64;100479.28;7386108;19;20025;-70
2021/11/14 02:54:25;;;;;;;103.50;38.22;;;;;;;8.55;60.27;100485.34;7385092;19;20118;-71
2021/11/14 02:59:49;;;;;;;97.25;40.30;;;;;;;8.35;60.54;100479.78;7325162;19;20042;-71
2021/11/14 03:02:45;;;;;;;97.03;39.60;;;;;;;8.29;60.91;100493.78;7390031;19;20045;-71
2021/11/14 03:05:32;;;;;;;95.15;40.00;;;;;;;8.26;61.35;100488.66;7384495;19;20021;-71
2021/11/14 03:08:20;;;;;;;101.60;40.13;;;;;;;8.16;61.74;100501.09;7387467;19;20022;-70
2021/11/14 03:13:38;;;;;;;98.20;38.83;;;;;;;8.02;61.85;100500.56;7369611;19;20040;-68
2021/11/14 03:16:28;;;;;;;105.30;40.53;;;;;;;8.00;62.05;100501.50;7385485;19;20037;-68
2021/11/14 03:19:17;;;;;;;100.63;39.63;;;;;;;8.07;61.76;100503.91;7387087;19;20751;-68
2021/11/14 03:22:05;;;;;;;100.85;38.72;;;;;;;8.14;61.38;100505.50;7384164;19;20121;-67
2021/11/14 03:24:53;;;;;;;100.38;38.92;;;;;;;8.16;61.29;100508.94;7384351;19;20017;-68
2021/11/14 03:27:40;;;;;;;107.88;40.38;;;;;;;8.19;61.40;100508.00;7387032;19;20025;-67
2021/11/14 03:30:33;;;;;;;97.05;38.33;;;;;;;8.19;60.96;100508.84;7384198;19;20041;-67
2021/11/14 03:33:21;;;;;;;95.70;39.08;;;;;;;8.19;61.27;100508.84;7366880;19;20033;-71
2021/11/14 03:36:12;;;;;;;99.28;40.70;;;;;;;8.20;61.22;100514.94;7388906;19;20112;-72
2021/11/14 03:41:37;;;;;;;96.13;37.45;;;;;;;8.14;61.80;100512.47;7342726;19;20102;-70
2021/11/14 03:44:25;;;;;;;95.65;37.60;;;;;;;8.20;61.56;100517.53;7387071;19;20644;-70
2021/11/14 03:47:15;;;;;;;100.82;40.00;;;;;;;8.19;61.42;100516.69;7383018;19;20051;-71
2021/11/14 03:50:02;;;;;;;110.00;42.72;;;;;;;8.21;61.55;100522.72;7388860;19;20360;-71
2021/11/14 03:55:25;;;;;;;92.35;37.65;;;;;;;8.26;61.36;100518.25;7376863;19;20033;-68
2021/11/14 03:58:13;;;;;;;102.72;40.20;;;;;;;8.30;61.32;100526.00;7349605;19;20018;-71
2021/11/14 04:01:04;;;;;;;85.65;37.60;;;;;;;8.26;61.35;100531.28;7386859;19;20375;-71
2021/11/14 04:03:55;;;;;;;106.20;38.00;;;;;;;8.27;61.48;100533.00;7383145;19;20025;-71
2021/11/14 04:11:54;;;;;;;89.25;37.40;;;;;;;8.20;61.76;100531.44;7292840;19;20012;-71
2021/11/14 04:14:42;;;;;;;89.90;36.88;;;;;;;8.22;61.56;100540.09;7382474;19;20034;-73
2021/11/14 04:17:29;;;;;;;99.03;36.95;;;;;;;8.19;61.42;100531.50;7383611;19;20053;-73
2021/11/14 04:20:20;;;;;;;105.13;41.47;;;;;;;8.17;61.96;100534.16;7388537;19;20018;-73
2021/11/14 04:23:08;;;;;;;108.18;40.47;;;;;;;8.19;62.17;100539.31;7388773;19;20498;-71
2021/11/14 04:41:44;;;;;;;104.25;39.63;;;;;;;8.11;62.20;100544.72;7390511;19;20459;-71
2021/11/14 04:49:52;;;;;;;97.15;38.97;;;;;;;8.18;62.20;100548.91;7368513;19;20015;-67
2021/11/14 04:58:16;;;;;;;93.07;37.45;;;;;;;8.16;61.96;100558.53;7349772;19;20023;-74
2021/11/14 05:06:37;;;;;;;108.30;40.95;;;;;;;8.11;62.03;100573.44;7354778;19;20022;-72
2021/11/14 05:09:25;;;;;;;101.60;40.17;;;;;;;8.10;62.06;100569.09;7392033;19;20125;-72
2021/11/14 05:12:12;;;;;;;94.13;40.45;;;;;;;8.15;61.98;100580.34;7387344;19;20438;-73
2021/11/14 05:15:02;;;;;;;97.00;40.58;;;;;;;8.12;62.18;100583.03;7388819;19;20047;-71
2021/11/14 05:20:25;;;;;;;95.40;41.45;;;;;;;8.15;62.02;100589.91;7311341;19;20038;-67
2021/11/14 05:28:38;;;;;;;100.27;38.90;;;;;;;8.13;62.22;100597.78;7386748;19;20347;-67
2021/11/14 05:31:29;;;;;;;87.30;37.00;;;;;;;8.16;61.99;100591.63;7385623;19;20029;-68
2021/11/14 05:39:41;;;;;;;94.90;36.15;;;;;;;8.18;61.94;100605.50;7387428;19;20010;-72
2021/11/14 05:47:42;;;;;;;88.78;36.00;;;;;;;8.17;61.91;100612.50;7371144;19;20085;-67
2021/11/14 05:50:30;;;;;;;89.32;35.50;;;;;;;8.17;61.88;100609.88;7388942;19;20029;-69
2021/11/14 05:53:18;;;;;;;90.68;33.35;;;;;;;8.17;62.40;100612.50;7384940;19;20497;-67
2021/11/14 06:04:31;;;;;;;88.32;37.22;;;;;;;8.03;62.12;100622.38;7389689;19;20565;-71
2021/11/14 06:07:19;;;;;;;101.32;36.75;;;;;;;8.03;62.37;100622.38;7326211;19;20034;-72
2021/11/14 06:12:43;;;;;;;103.32;40.83;;;;;;;8.08;62.26;100645.78;7349428;19;20031;-68
2021/11/14 06:15:39;;;;;;;86.15;36.53;;;;;;;7.95;62.38;100640.81;7350083;19;20134;-73
2021/11/14 06:27:27;;;;;;;103.28;37.83;;;;;;;7.98;62.30;100659.94;7387225;19;20018;-66
2021/11/14 06:37:53;;;;;;;95.20;36.80;;;;;;;8.01;62.65;100671.16;7386174;19;20010;-72
2021/11/14 06:49:09;;;;;;;91.82;35.33;;;;;;;8.06;62.29;100677.13;7327748;19;20482;-72
2021/11/14 06:57:07;;;;;;;94.60;39.05;;;;;;;8.18;61.89;100679.50;7302629;19;20018;-67
2021/11/14 06:59:55;;;;;;;89.90;35.97;;;;;;;8.22;62.06;100691.59;7391138;19;20025;-68
2021/11/14 07:05:21;;;;;;;96.60;35.70;;;;;;;8.23;62.30;100695.06;7319183;19;20250;-68
2021/11/14 07:16:27;;;;;;;;;;;;;;;8.39;62.05;100708.69;7343489;19;20474;-71
2021/11/14 07:19:15;;;;;;;89.10;32.97;;;;;;;8.35;62.10;100713.13;7386988;19;19934;-70
2021/11/14 07:22:05;;;;;;;94.78;35.58;;;;;;;8.27;62.44;100715.00;7383579;19;20030;-70
2021/11/14 07:24:52;;;;;;;98.05;37.58;;;;;;;8.36;62.19;100719.22;7386748;19;20030;-70
2021/11/14 07:27:48;;;;;;;99.35;34.42;;;;;;;8.43;61.75;100716.41;7346710;19;20055;-66
2021/11/14 07:30:35;;;;;;;88.50;34.60;;;;;;;8.51;61.90;100718.84;7386518;19;20367;-70
2021/11/14 07:33:23;;;;;;;87.25;34.88;;;;;;;8.59;61.75;100727.41;7381178;19;20403;-68
2021/11/14 07:36:11;;;;;;;91.95;34.05;;;;;;;8.62;61.76;100724.72;7381568;19;20650;-65
2021/11/14 07:39:02;;;;;;;89.05;35.47;;;;;;;8.64;61.69;100730.75;7382489;19;20029;-65
2021/11/14 07:41:50;;;;;;;;;;;;;;;8.71;61.55;100731.47;7381488;19;20034;-73
2021/11/14 07:44:37;;;;;;;93.30;36.17;;;;;;;8.72;61.42;100739.28;7378764;19;19937;-71
2021/11/14 07:47:25;;;;;;;87.28;35.67;;;;;;;8.70;61.29;100740.22;7378888;19;20026;-70
2021/11/14 07:50:13;;;;;;;85.68;35.40;;;;;;;8.62;62.18;100743.00;7380151;19;20021;-69
2021/11/14 07:53:04;;;;;;;90.88;34.65;;;;;;;8.66;61.82;100744.66;7380168;19;20034;-70
2021/11/14 07:55:55;;;;;;;91.07;35.67;;;;;;;8.67;61.58;100746.38;7378780;19;20383;-70
2021/11/14 07:58:43;;;;;;;91.95;35.45;;;;;;;8.68;62.21;100748.09;7380103;19;20367;-69
2021/11/14 08:01:30;;;;;;;91.22;35.72;;;;;;;8.72;61.49;100759.31;7385071;19;20029;-71
2021/11/14 08:04:18;;;;;;;88.93;39.90;;;;;;;8.74;61.58;100755.78;7276343;19;20052;-71
2021/11/14 08:07:09;;;;;;;95.38;38.90;;;;;;;8.72;61.72;100756.72;7380322;19;20026;-79
2021/11/14 08:09:57;;;;;;;94.03;38.13;;;;;;;8.72;61.77;100760.19;7383595;19;20039;-72
2021/11/14 08:12:47;;;;;;;88.78;36.38;;;;;;;8.76;61.43;100767.09;7379942;19;20029;-71
2021/11/14 08:15:36;;;;;;;100.38;41.30;;;;;;;8.73;61.90;100772.34;7368565;19;20461;-70
2021/11/14 08:18:24;;;;;;;102.75;42.30;;;;;;;8.71;61.75;100773.28;7382300;19;20039;-74
2021/11/14 08:21:11;;;;;;;86.70;36.58;;;;;;;8.72;62.03;100783.72;7383244;19;20022;-72
2021/11/14 08:23:59;;;;;;;92.22;35.10;;;;;;;8.71;61.93;100781.13;7379825;19;20030;-70
2021/11/14 08:26:46;;;;;;;91.72;33.88;;;;;;;8.58;62.35;100779.69;7380515;19;20055;-66
2021/11/14 08:29:37;;;;;;;86.22;34.03;;;;;;;8.52;62.09;100784.13;7381154;19;20111;-68
2021/11/14 08:32:24;;;;;;;88.95;37.17;;;;;;;8.62;62.10;100784.81;7379060;19;20107;-66
2021/11/14 08:35:12;;;;;;;88.28;38.28;;;;;;;8.69;61.71;100789.00;7380427;19;20021;-67
2021/11/14 08:38:01;;;;;;;86.65;36.05;;;;;;;8.80;61.52;100789.66;7378569;19;20022;-65
2021/11/14 08:40:49;;;;;;;96.28;36.10;;;;;;;8.83;61.56;100794.81;7380532;19;20025;-67
2021/11/14 08:43:37;;;;;;;86.93;34.15;;;;;;;8.86;61.77;100799.09;7378007;19;20049;-69
2021/11/14 08:46:28;;;;;;;84.25;33.42;;;;;;;8.82;61.40;100797.44;7380501;19;20494;-68
2021/11/14 08:49:16;;;;;;;74.43;33.40;;;;;;;8.75;61.72;100809.81;7378976;19;20059;-68
2021/11/14 08:52:04;;;;;;;88.18;32.80;;;;;;;8.62;62.20;100808.34;7378313;19;20022;-68
2021/11/14 08:54:53;;;;;;;76.53;33.15;;;;;;;8.53;61.85;100817.22;7379101;19;20047;-66
2021/11/14 08:57:40;;;;;;;88.82;31.52;;;;;;;8.47;62.16;100822.59;7376352;19;20033;-67
2021/11/14 09:00:31;;;;;;;72.68;30.17;;;;;;;8.43;62.24;100817.47;7378409;19;20036;-67
2021/11/14 09:03:22;;;;;;;72.43;29.48;;;;;;;8.58;62.08;100822.38;7375733;19;20045;-68
2021/11/14 09:06:10;;;;;;;78.13;32.30;;;;;;;8.74;61.59;100823.75;7379608;19;20026;-67
2021/11/14 09:08:57;;;;;;;85.25;32.75;;;;;;;8.82;61.49;100829.69;7385072;19;20396;-67
2021/11/14 09:11:47;;;;;;;73.80;31.65;;;;;;;8.86;61.76;100831.34;7385577;19;20028;-71
2021/11/14 09:14:35;;;;;;;89.93;34.20;;;;;;;8.95;61.28;100830.25;7386412;19;20494;-71
2021/11/14 09:17:23;;;;;;;80.93;33.33;;;;;;;9.01;61.10;100829.28;7383673;19;20402;-69
2021/11/14 09:20:14;;;;;;;85.90;33.10;;;;;;;8.93;61.04;100832.03;7386054;19;20536;-69
2021/11/14 09:23:02;;;;;;;;;;;;;;;8.90;61.38;100836.50;7387912;19;20031;-67
2021/11/14 09:25:51;;;;;;;78.10;29.65;;;;;;;8.78;61.32;100833.25;7385345;19;19926;-68
2021/11/14 09:28:39;;;;;;;84.70;34.38;;;;;;;8.59;61.82;100839.78;7384615;19;20051;-66
2021/11/14 09:31:26;;;;;;;78.75;32.03;;;;;;;8.56;62.27;100842.44;7386404;19;20049;-68
2021/11/14 09:34:14;;;;;;;77.13;31.77;;;;;;;8.52;62.38;100839.03;7384810;19;20113;-67
2021/11/14 09:37:06;;;;;;;73.03;30.63;;;;;;;8.58;62.34;100847.66;7386201;19;20041;-66
2021/11/14 09:39:54;;;;;;;74.15;31.60;;;;;;;8.64;62.30;100845.75;7388406;19;20047;-70
2021/11/14 09:42:45;;;;;;;80.95;32.75;;;;;;;8.54;62.30;100845.09;7386925;19;20038;-70
2021/11/14 09:45:39;;;;;;;71.35;30.27;;;;;;;8.48;62.58;100842.59;7386798;19;20029;-70
2021/11/14 09:48:28;;;;;;;68.15;30.65;;;;;;;8.44;62.59;100846.16;7385813;19;20053;-70
2021/11/14 09:51:16;;;;;;;78.03;30.17;;;;;;;8.41;62.59;100843.63;7386501;19;20021;-70
2021/11/14 09:54:09;;;;;;;71.15;31.05;;;;;;;8.45;62.54;100841.78;7385307;19;20025;-67
2021/11/14 09:56:59;;;;;;;69.63;29.35;;;;;;;8.60;62.23;100846.72;7387569;19;20486;-68
2021/11/14 09:59:47;;;;;;;77.45;31.25;;;;;;;8.60;62.35;100844.09;7386786;19;20025;-72
2021/11/14 10:02:35;;;;;;;70.38;30.52;;;;;;;8.59;62.63;100858.06;7385331;19;20462;-70
2021/11/14 10:05:23;;;;;;;74.70;32.30;;;;;;;8.65;62.37;100852.72;7385649;19;20032;-70
2021/11/14 10:08:13;;;;;;;92.65;36.20;;;;;;;8.75;62.46;100856.00;7385983;19;20115;-70
2021/11/14 10:11:03;;;;;;;88.03;37.65;;;;;;;8.81;62.25;100859.34;7388230;19;20022;-71
2021/11/14 10:13:52;;;;;;;69.43;34.53;;;;;;;8.86;61.84;100862.72;7389135;19;20388;-71
2021/11/14 10:16:40;;;;;;;82.88;33.50;;;;;;;8.93;61.85;100862.56;7386962;19;20029;-71
2021/11/14 10:19:28;;;;;;;80.15;34.78;;;;;;;8.97;61.72;100864.25;7389487;19;20021;-70
2021/11/14 10:22:15;;;;;;;75.85;34.42;;;;;;;9.02;61.39;100867.59;7383813;19;20105;-75
2021/11/14 10:25:04;;;;;;;91.70;34.67;;;;;;;9.09;61.56;100859.59;7384303;19;20025;-72
2021/11/14 10:27:58;;;;;;;86.35;34.42;;;;;;;9.16;61.02;100861.19;7384917;19;20070;-70
2021/11/14 10:30:50;;;;;;;89.07;35.10;;;;;;;9.17;61.20;100867.28;7387346;19;20029;-72
2021/11/14 10:33:38;;;;;;;92.00;37.25;;;;;;;9.18;60.94;100873.38;7387303;19;20048;-72
2021/11/14 10:36:27;;;;;;;81.82;38.55;;;;;;;9.17;61.49;100872.50;7385861;19;20033;-72
2021/11/14 10:39:15;;;;;;;76.60;35.53;;;;;;;9.19;61.39;100868.09;7387276;19;20025;-71
2021/11/14 10:42:14;;;;;;;84.10;35.05;;;;;;;9.05;61.43;100871.00;7384015;19;20130;-70
2021/11/14 10:45:08;;;;;;;81.07;35.08;;;;;;;9.06;61.60;100874.50;7384757;19;20052;-72
2021/11/14 10:48:00;;;;;;;78.55;36.13;;;;;;;9.03;61.54;100874.56;7383785;19;20041;-70
2021/11/14 10:50:51;;;;;;;77.55;33.45;;;;;;;9.04;61.46;100866.69;7387281;19;20024;-72
2021/11/14 10:53:38;;;;;;;80.78;35.05;;;;;;;9.05;61.79;100867.53;7386531;19;20026;-74
2021/11/14 10:56:26;;;;;;;89.75;36.80;;;;;;;9.11;61.17;100875.25;7385344;19;20028;-70
2021/11/14 10:59:13;;;;;;;88.60;35.72;;;;;;;9.12;61.32;100864.75;7385424;19;20132;-69
2021/11/14 11:02:07;;;;;;;86.38;37.58;;;;;;;9.19;60.82;100864.63;7384631;19;20037;-66
2021/11/14 11:04:56;;;;;;;71.00;33.55;;;;;;;9.21;60.90;100868.91;7383282;19;20055;-64
2021/11/14 11:07:44;;;;;;;81.13;34.10;;;;;;;9.17;61.20;100869.91;7383634;19;20515;-63
2021/11/14 11:10:35;;;;;;;80.80;33.13;;;;;;;9.13;61.56;100878.69;7384068;19;20046;-63
2021/11/14 11:13:34;;;;;;;78.50;35.13;;;;;;;8.99;61.36;100878.16;7380620;19;20029;-63
2021/11/14 11:16:24;;;;;;;75.85;32.92;;;;;;;8.94;61.64;100869.50;7382567;19;20494;-63
2021/11/14 11:19:16;;;;;;;72.63;31.55;;;;;;;8.88;61.65;100872.28;7382939;19;20037;-64
2021/11/14 11:22:06;;;;;;;78.05;33.63;;;;;;;8.82;62.03;100870.66;7381656;19;20052;-64
2021/11/14 11:24:56;;;;;;;74.13;33.10;;;;;;;8.82;61.93;100876.75;7381206;19;20022;-64
2021/11/14 11:27:55;;;;;;;79.32;34.30;;;;;;;8.79;62.26;100882.03;7380571;19;20026;-64
2021/11/14 11:30:45;;;;;;;78.53;32.85;;;;;;;8.88;61.92;100873.13;7380319;19;20030;-62
2021/11/14 11:33:35;;;;;;;73.82;31.67;;;;;;;8.90;61.89;100886.16;7381747;19;20038;-63
2021/11/14 11:36:26;;;;;;;83.07;33.58;;;;;;;8.94;61.96;100885.19;7381375;19;20151;-64
2021/11/14 11:39:14;;;;;;;70.57;31.42;;;;;;;8.99;61.63;100879.00;7381452;19;20102;-63
2021/11/14 11:42:03;;;;;;;73.32;32.35;;;;;;;9.02;61.69;100888.53;7381134;19;20516;-63
2021/11/14 11:44:55;;;;;;;70.30;32.00;;;;;;;9.07;61.77;100894.50;7381420;19;20026;-63
2021/11/14 11:47:45;;;;;;;76.05;34.85;;;;;;;9.10;61.47;100887.47;7380466;19;20030;-62
2021/11/14 11:50:36;;;;;;;76.95;33.60;;;;;;;9.11;61.30;100883.09;7381552;19;20049;-63
2021/11/14 11:53:30;;;;;;;73.97;34.27;;;;;;;9.15;61.72;100884.72;7380289;19;20484;-64
2021/11/14 11:56:19;;;;;;;89.35;37.58;;;;;;;9.25;60.93;100886.25;7381301;19;20033;-63
2021/11/14 11:59:14;;;;;;;71.30;33.28;;;;;;;9.28;61.17;100890.56;7381671;19;20055;-63
2021/11/14 12:02:04;;;;;;;78.32;32.42;;;;;;;9.25;61.28;100888.88;7380841;19;20030;-63
2021/11/14 12:04:54;;;;;;;71.40;31.50;;;;;;;9.10;61.75;100897.06;7380615;19;20026;-63
2021/11/14 12:07:47;;;;;;;67.55;30.75;;;;;;;9.00;62.15;100900.78;7380381;19;20059;-65
2021/11/14 12:10:37;;;;;;;79.47;32.17;;;;;;;8.95;61.67;100902.63;7381540;19;20025;-64
2021/11/14 12:13:30;;;;;;;69.50;32.15;;;;;;;8.92;62.26;100903.53;7380225;19;20536;-63
2021/11/14 12:16:29;;;;;;;71.50;32.00;;;;;;;8.98;61.83;100905.19;7380832;19;20029;-64
2021/11/14 12:19:24;;;;;;;66.43;31.48;;;;;;;9.00;61.88;100912.09;7381107;19;20146;-63
2021/11/14 12:22:15;;;;;;;72.55;33.30;;;;;;;9.01;62.03;100919.06;7379939;19;20051;-63
2021/11/14 12:25:03;;;;;;;;;;;;;;;8.93;61.93;100914.88;7381218;19;20460;-63
2021/11/14 12:28:04;;;;;;;70.97;30.73;;;;;;;8.85;62.16;100928.97;7378229;19;19941;-63
2021/11/14 12:31:05;;;;;;;73.00;34.67;;;;;;;8.86;62.24;100932.44;7380688;19;20468;-63
2021/11/14 12:33:55;;;;;;;77.82;34.00;;;;;;;8.86;62.08;100940.28;7381329;19;20518;-64
2021/11/14 12:36:46;;;;;;;79.65;35.33;;;;;;;8.77;62.61;100946.56;7381044;19;20022;-64
2021/11/14 12:39:35;;;;;;;;;;;;;;;8.83;62.40;100941.22;7381288;19;20105;-64
2021/11/14 12:42:25;;;;;;;79.43;34.63;;;;;;;8.82;61.79;100944.72;7386937;19;20298;-64
2021/11/14 12:45:16;;;;;;;73.95;32.50;;;;;;;8.76;62.18;100949.22;7376559;19;20025;-62
2021/11/14 12:48:13;;;;;;;81.18;35.80;;;;;;;8.78;62.12;100953.53;7385043;19;20112;-62
2021/11/14 12:51:08;;;;;;;75.60;34.72;;;;;;;8.82;62.04;100949.94;7387465;19;20059;-62
2021/11/14 12:53:59;;;;;;;73.97;31.65;;;;;;;8.78;62.17;100953.53;7387087;19;20378;-62
2021/11/14 12:56:52;;;;;;;74.65;31.80;;;;;;;8.73;62.92;100955.34;7386259;19;20044;-64
2021/11/14 12:59:45;;;;;;;60.65;29.27;;;;;;;8.71;62.75;100957.13;7387506;19;20486;-63
2021/11/14 13:02:36;;;;;;;62.78;28.92;;;;;;;8.71;62.77;100961.50;7384454;19;20485;-62
2021/11/14 13:05:24;;;;;;;55.95;28.15;;;;;;;8.68;62.85;100961.56;7384903;19;20026;-62
2021/11/14 13:08:18;;;;;;;68.38;30.88;;;;;;;8.75;62.60;100964.03;7383911;19;20466;-62
2021/11/14 13:11:08;;;;;;;66.25;30.30;;;;;;;8.71;62.67;100961.50;7386444;19;20379;-62
2021/11/14 13:14:05;;;;;;;77.13;32.53;;;;;;;8.69;62.55;100966.75;7386642;19;20042;-63
2021/11/14 13:16:54;;;;;;;70.38;31.75;;;;;;;8.70;62.52;100971.09;7384097;19;20023;-62
2021/11/14 13:19:45;;;;;;;77.03;32.88;;;;;;;8.73;62.59;100981.47;7385036;19;20049;-63
2021/11/14 13:22:32;;;;;;;73.30;31.92;;;;;;;8.69;62.76;100979.81;7384540;19;20021;-62
2021/11/14 13:25:25;;;;;;;69.55;31.98;;;;;;;8.71;62.96;100985.03;7383990;19;20486;-61
2021/11/14 13:28:12;;;;;;;80.22;36.03;;;;;;;8.70;62.84;100980.69;7383802;19;20576;-63
2021/11/14 13:31:00;;;;;;;80.97;36.35;;;;;;;8.69;63.13;100986.81;7385445;19;20047;-65
2021/11/14 13:34:00;;;;;;;73.15;33.50;;;;;;;8.61;62.86;100986.97;7384763;19;20040;-63
2021/11/14 13:37:00;;;;;;;74.18;32.17;;;;;;;8.65;63.04;100982.53;7385322;19;20495;-63
2021/11/14 13:39:50;;;;;;;70.25;30.60;;;;;;;8.74;63.03;100980.59;7386015;19;20112;-65
2021/11/14 13:42:40;;;;;;;64.35;29.55;;;;;;;8.81;62.87;100987.44;7384015;19;20368;-65
2021/11/14 13:45:28;;;;;;;61.00;29.13;;;;;;;8.84;62.39;100996.97;7388120;19;20026;-64
2021/11/14 13:48:18;;;;;;;73.38;29.05;;;;;;;8.82;62.96;100999.63;7383169;19;20029;-64
2021/11/14 13:51:13;;;;;;;70.53;33.17;;;;;;;8.86;62.58;100987.34;7385045;19;20078;-63
2021/11/14 13:54:11;;;;;;;78.15;32.58;;;;;;;8.81;62.88;100995.28;7384547;19;20037;-63
2021/11/14 13:56:59;;;;;;;68.00;33.88;;;;;;;8.83;62.65;101003.97;7384838;19;20356;-66
2021/11/14 13:59:47;;;;;;;71.55;34.35;;;;;;;8.79;62.69;101007.53;7385040;19;20020;-66
2021/11/14 14:02:35;;;;;;;67.65;33.40;;;;;;;8.78;63.18;101013.66;7385784;19;20028;-65
2021/11/14 14:05:24;;;;;;;79.45;37.55;;;;;;;8.81;63.02;101005.75;7383750;19;20051;-63
2021/11/14 14:08:11;;;;;;;95.10;40.05;;;;;;;8.81;62.81;101010.97;7383908;19;20372;-70
2021/11/14 14:11:03;;;;;;;84.38;41.38;;;;;;;8.81;62.61;101021.44;7384206;19;20076;-66
2021/11/14 14:13:57;;;;;;;85.15;42.05;;;;;;;8.82;62.55;101017.94;7387818;19;20518;-65
2021/11/14 14:16:46;;;;;;;92.43;43.55;;;;;;;8.82;62.58;101027.53;7383829;19;20025;-67
2021/11/14 14:19:33;;;;;;;94.18;43.38;;;;;;;8.80;63.09;101029.31;7384792;19;20052;-65
2021/11/14 14:22:21;;;;;;;96.70;43.80;;;;;;;8.79;62.85;101036.28;7382576;19;20021;-65
2021/11/14 14:25:11;;;;;;;88.53;39.17;;;;;;;8.79;62.95;101036.28;7382126;19;20134;-62
2021/11/14 14:28:04;;;;;;;82.45;38.72;;;;;;;8.79;62.46;101038.03;7381597;19;20064;-61
2021/11/14 14:30:56;;;;;;;99.13;44.47;;;;;;;8.78;62.60;101041.56;7384293;19;20048;-65
2021/11/14 14:33:53;;;;;;;92.18;40.17;;;;;;;8.72;62.62;101045.13;7383943;19;20044;-63
2021/11/14 14:36:41;;;;;;;89.97;40.03;;;;;;;8.75;62.63;101042.47;7386969;19;20020;-62
2021/11/14 14:39:40;;;;;;;80.80;38.05;;;;;;;8.75;62.85;101052.94;7383814;19;20613;-65
2021/11/14 14:42:28;;;;;;;79.75;35.65;;;;;;;8.77;62.58;101050.28;7382907;19;20348;-63
2021/11/14 14:45:22;;;;;;;81.35;36.33;;;;;;;8.73;62.41;101049.44;7383157;19;20033;-65
2021/11/14 14:48:12;;;;;;;83.63;37.05;;;;;;;8.78;62.60;101060.72;7382022;19;20615;-65
2021/11/14 14:51:01;;;;;;;92.57;39.78;;;;;;;8.76;62.49;101049.44;7383788;19;20013;-64
2021/11/14 14:53:51;;;;;;;83.70;39.40;;;;;;;8.76;62.64;101054.66;7383321;19;20031;-66
2021/11/14 14:56:38;;;;;;;83.18;40.30;;;;;;;8.78;62.54;101055.47;7382699;19;20021;-65
2021/11/14 14:59:29;;;;;;;86.43;37.67;;;;;;;8.83;62.11;101055.41;7383904;19;20025;-74
2021/11/14 15:02:21;;;;;;;82.93;39.90;;;;;;;8.83;62.21;101055.41;7380924;19;20030;-67
2021/11/14 15:05:10;;;;;;;76.03;37.60;;;;;;;8.82;62.32;101058.91;7379126;19;20501;-68